sensor_id;sensor_type;location;lat;lon;timestamp;pressure;altitude;pressure_sealevel;temperature;humidity
71948;BME280;59820;55.076;38.766;2022-09-03T00:02:12;100399.63;;;5.98;82.15
71948;BME280;59820;55.076;38.766;2022-09-03T00:10:28;100392.09;;;5.84;82.74
71948;BME280;59820;55.076;38.766;2022-09-03T00:12:58;100423.31;;;5.92;82.75
71948;BME280;59820;55.076;38.766;2022-09-03T00:15:27;100411.19;;;5.89;82.70
71948;BME280;59820;55.076;38.766;2022-09-03T00:18:05;100423.34;;;5.90;82.75
71948;BME280;59820;55.076;38.766;2022-09-03T00:20:40;100431.25;;;5.89;82.66
71948;BME280;59820;55.076;38.766;2022-09-03T00:23:27;100428.69;;;5.87;83.32
71948;BME280;59820;55.076;38.766;2022-09-03T00:26:45;100423.50;;;5.86;82.31
71948;BME280;59820;55.076;38.766;2022-09-03T00:28:56;100432.34;;;5.82;83.27
71948;BME280;59820;55.076;38.766;2022-09-03T00:31:29;100440.19;;;5.82;82.64
71948;BME280;59820;55.076;38.766;2022-09-03T00:34:31;100435.78;;;5.82;83.46
71948;BME280;59820;55.076;38.766;2022-09-03T00:36:58;100423.06;;;5.68;83.23
71948;BME280;59820;55.076;38.766;2022-09-03T00:39:26;100437.72;;;5.75;83.52
71948;BME280;59820;55.076;38.766;2022-09-03T00:55:59;100441.31;;;5.71;83.34
71948;BME280;59820;55.076;38.766;2022-09-03T01:00:58;100439.66;;;5.69;83.63
71948;BME280;59820;55.076;38.766;2022-09-03T01:03:49;100427.53;;;5.63;83.54
71948;BME280;59820;55.076;38.766;2022-09-03T01:06:29;100439.84;;;5.61;83.42
71948;BME280;59820;55.076;38.766;2022-09-03T01:17:26;100453.00;;;5.58;83.82
71948;BME280;59820;55.076;38.766;2022-09-03T01:26:11;100457.38;;;5.57;83.90
71948;BME280;59820;55.076;38.766;2022-09-03T01:34:31;100479.25;;;5.55;83.47
71948;BME280;59820;55.076;38.766;2022-09-03T01:42:43;100431.94;;;5.26;83.70
71948;BME280;59820;55.076;38.766;2022-09-03T01:45:53;100478.56;;;5.48;83.07
71948;BME280;59820;55.076;38.766;2022-09-03T01:48:30;100486.47;;;5.45;83.13
71948;BME280;59820;55.076;38.766;2022-09-03T01:57:00;100495.44;;;5.35;83.48
71948;BME280;59820;55.076;38.766;2022-09-03T01:59:56;100510.31;;;5.33;83.90
71948;BME280;59820;55.076;38.766;2022-09-03T02:02:27;100495.56;;;5.29;84.57
71948;BME280;59820;55.076;38.766;2022-09-03T02:05:11;100510.50;;;5.25;84.13
71948;BME280;59820;55.076;38.766;2022-09-03T02:07:44;100512.34;;;5.20;84.39
71948;BME280;59820;55.076;38.766;2022-09-03T02:10:18;100506.34;;;5.15;84.70
71948;BME280;59820;55.076;38.766;2022-09-03T02:12:48;100495.22;;;5.05;84.80
71948;BME280;59820;55.076;38.766;2022-09-03T02:15:20;100508.19;;;5.09;84.97
71948;BME280;59820;55.076;38.766;2022-09-03T02:17:48;100490.09;;;5.00;84.66
71948;BME280;59820;55.076;38.766;2022-09-03T02:20:22;100502.19;;;5.06;85.06
71948;BME280;59820;55.076;38.766;2022-09-03T02:22:49;100496.94;;;5.06;85.15
71948;BME280;59820;55.076;38.766;2022-09-03T02:25:16;100498.00;;;4.97;85.52
71948;BME280;59820;55.076;38.766;2022-09-03T02:27:43;100520.44;;;5.09;85.38
71948;BME280;59820;55.076;38.766;2022-09-03T02:30:10;100517.00;;;5.07;85.69
71948;BME280;59820;55.076;38.766;2022-09-03T02:32:36;100524.84;;;5.07;85.25
71948;BME280;59820;55.076;38.766;2022-09-03T02:35:02;100500.66;;;4.96;85.57
71948;BME280;59820;55.076;38.766;2022-09-03T02:37:30;100528.34;;;5.06;85.62
71948;BME280;59820;55.076;38.766;2022-09-03T02:39:56;100530.97;;;5.06;85.72
71948;BME280;59820;55.076;38.766;2022-09-03T02:42:22;100535.31;;;5.07;85.44
71948;BME280;59820;55.076;38.766;2022-09-03T02:44:59;100537.13;;;5.03;85.82
71948;BME280;59820;55.076;38.766;2022-09-03T02:47:30;100513.03;;;4.87;85.93
71948;BME280;59820;55.076;38.766;2022-09-03T02:49:58;100520.91;;;4.86;85.55
71948;BME280;59820;55.076;38.766;2022-09-03T02:52:24;100536.31;;;5.00;85.18
71948;BME280;59820;55.076;38.766;2022-09-03T02:54:50;100544.16;;;5.00;85.16
71948;BME280;59820;55.076;38.766;2022-09-03T02:57:16;100526.09;;;4.87;85.77
71948;BME280;59820;55.076;38.766;2022-09-03T02:59:43;100546.75;;;5.01;85.29
71948;BME280;59820;55.076;38.766;2022-09-03T03:02:11;100524.38;;;4.88;85.78
71948;BME280;59820;55.076;38.766;2022-09-03T03:04:37;100547.72;;;4.96;85.32
71948;BME280;59820;55.076;38.766;2022-09-03T03:07:05;100549.44;;;4.98;85.11
71948;BME280;59820;55.076;38.766;2022-09-03T03:09:31;100548.47;;;5.02;85.19
71948;BME280;59820;55.076;38.766;2022-09-03T03:11:57;100551.06;;;5.04;85.21
71948;BME280;59820;55.076;38.766;2022-09-03T03:14:23;100556.28;;;5.04;85.83
71948;BME280;59820;55.076;38.766;2022-09-03T03:16:49;100559.75;;;5.06;85.25
71948;BME280;59820;55.076;38.766;2022-09-03T03:19:16;100552.78;;;5.05;85.78
71948;BME280;59820;55.076;38.766;2022-09-03T03:21:42;100565.75;;;5.09;85.18
71948;BME280;59820;55.076;38.766;2022-09-03T03:24:09;100570.94;;;5.13;84.97
71948;BME280;59820;55.076;38.766;2022-09-03T03:26:35;100567.41;;;5.14;84.94
71948;BME280;59820;55.076;38.766;2022-09-03T03:29:01;100550.25;;;5.02;84.80
71948;BME280;59820;55.076;38.766;2022-09-03T03:31:30;100578.56;;;5.25;84.86
71948;BME280;59820;55.076;38.766;2022-09-03T03:33:58;100576.75;;;5.27;84.58
71948;BME280;59820;55.076;38.766;2022-09-03T03:36:29;100564.72;;;5.18;84.60
71948;BME280;59820;55.076;38.766;2022-09-03T03:38:57;100582.72;;;5.34;84.58
71948;BME280;59820;55.076;38.766;2022-09-03T03:41:32;100592.25;;;5.36;84.83
71948;BME280;59820;55.076;38.766;2022-09-03T03:44:05;100598.28;;;5.41;84.65
71948;BME280;59820;55.076;38.766;2022-09-03T03:46:34;100572.28;;;5.32;84.08
71948;BME280;59820;55.076;38.766;2022-09-03T03:49:00;100590.22;;;5.49;84.22
71948;BME280;59820;55.076;38.766;2022-09-03T03:51:26;100589.38;;;5.49;83.87
71948;BME280;59820;55.076;38.766;2022-09-03T03:53:54;100597.00;;;5.59;83.40
71948;BME280;59820;55.076;38.766;2022-09-03T03:56:22;100589.97;;;5.61;83.46
71948;BME280;59820;55.076;38.766;2022-09-03T03:58:49;100602.94;;;5.68;82.58
71948;BME280;59820;55.076;38.766;2022-09-03T04:01:18;100595.88;;;5.70;82.73
71948;BME280;59820;55.076;38.766;2022-09-03T04:03:45;100600.06;;;5.78;82.78
71948;BME280;59820;55.076;38.766;2022-09-03T04:06:13;100607.78;;;5.85;82.63
71948;BME280;59820;55.076;38.766;2022-09-03T04:08:41;100577.41;;;5.76;82.41
71948;BME280;59820;55.076;38.766;2022-09-03T04:11:10;100612.72;;;5.97;82.24
71948;BME280;59820;55.076;38.766;2022-09-03T04:13:40;100603.00;;;6.04;81.95
71948;BME280;59820;55.076;38.766;2022-09-03T04:16:11;100617.50;;;6.19;81.40
71948;BME280;59820;55.076;38.766;2022-09-03T04:18:38;100603.53;;;6.18;80.98
71948;BME280;59820;55.076;38.766;2022-09-03T04:21:08;100606.84;;;6.26;80.57
71948;BME280;59820;55.076;38.766;2022-09-03T04:23:40;100609.25;;;6.34;80.55
71948;BME280;59820;55.076;38.766;2022-09-03T04:26:07;100607.31;;;6.41;79.97
71948;BME280;59820;55.076;38.766;2022-09-03T04:28:34;100611.72;;;6.40;80.03
71948;BME280;59820;55.076;38.766;2022-09-03T04:31:02;100612.38;;;6.49;79.42
71948;BME280;59820;55.076;38.766;2022-09-03T04:33:29;100561.34;;;6.27;78.94
71948;BME280;59820;55.076;38.766;2022-09-03T04:36:06;100614.50;;;6.67;78.99
71948;BME280;59820;55.076;38.766;2022-09-03T04:38:35;100597.09;;;6.65;78.56
71948;BME280;59820;55.076;38.766;2022-09-03T04:41:01;100611.78;;;6.72;78.63
71948;BME280;59820;55.076;38.766;2022-09-03T04:43:28;100613.25;;;6.82;78.70
71948;BME280;59820;55.076;38.766;2022-09-03T04:46:03;100625.28;;;6.89;77.89
71948;BME280;59820;55.076;38.766;2022-09-03T04:48:33;100609.50;;;6.92;77.92
71948;BME280;59820;55.076;38.766;2022-09-03T04:51:06;100622.34;;;7.02;78.01
71948;BME280;59820;55.076;38.766;2022-09-03T04:53:35;100617.66;;;7.13;78.00
71948;BME280;59820;55.076;38.766;2022-09-03T04:56:01;100610.63;;;7.13;77.36
71948;BME280;59820;55.076;38.766;2022-09-03T04:58:28;100624.19;;;7.29;76.85
71948;BME280;59820;55.076;38.766;2022-09-03T05:00:54;100631.78;;;7.39;76.61
71948;BME280;59820;55.076;38.766;2022-09-03T05:03:21;100614.50;;;7.32;76.83
71948;BME280;59820;55.076;38.766;2022-09-03T05:05:54;100639.41;;;7.48;76.15
71948;BME280;59820;55.076;38.766;2022-09-03T05:08:21;100606.16;;;7.47;76.15
71948;BME280;59820;55.076;38.766;2022-09-03T05:10:48;100635.16;;;7.74;75.99
71948;BME280;59820;55.076;38.766;2022-09-03T05:13:14;100646.19;;;7.85;75.72
71948;BME280;59820;55.076;38.766;2022-09-03T05:15:40;100628.69;;;7.84;75.08
71948;BME280;59820;55.076;38.766;2022-09-03T05:18:08;100638.63;;;8.03;74.90
71948;BME280;59820;55.076;38.766;2022-09-03T05:20:34;100636.91;;;8.02;74.19
71948;BME280;59820;55.076;38.766;2022-09-03T05:23:02;100640.25;;;8.07;74.30
71948;BME280;59820;55.076;38.766;2022-09-03T05:25:29;100653.81;;;8.21;74.00
71948;BME280;59820;55.076;38.766;2022-09-03T05:27:57;100643.06;;;8.29;73.66
71948;BME280;59820;55.076;38.766;2022-09-03T05:30:26;100643.78;;;8.34;73.37
71948;BME280;59820;55.076;38.766;2022-09-03T05:32:51;100636.84;;;8.31;72.12
71948;BME280;59820;55.076;38.766;2022-09-03T05:35:17;100645.00;;;8.51;72.41
71948;BME280;59820;55.076;38.766;2022-09-03T05:37:44;100642.16;;;8.57;72.00
71948;BME280;59820;55.076;38.766;2022-09-03T05:40:10;100621.22;;;8.54;71.60
71948;BME280;59820;55.076;38.766;2022-09-03T05:42:37;100638.22;;;8.70;71.30
71948;BME280;59820;55.076;38.766;2022-09-03T05:45:09;100637.00;;;8.79;70.80
71948;BME280;59820;55.076;38.766;2022-09-03T05:47:37;100643.75;;;8.88;70.60
71948;BME280;59820;55.076;38.766;2022-09-03T05:50:07;100652.31;;;8.94;70.25
71948;BME280;59820;55.076;38.766;2022-09-03T05:52:36;100646.09;;;8.95;70.02
71948;BME280;59820;55.076;38.766;2022-09-03T05:55:02;100645.66;;;9.08;69.91
71948;BME280;59820;55.076;38.766;2022-09-03T05:57:29;100661.97;;;9.17;69.98
71948;BME280;59820;55.076;38.766;2022-09-03T05:59:55;100646.69;;;9.29;69.73
71948;BME280;59820;55.076;38.766;2022-09-03T06:02:21;100632.63;;;9.28;69.08
71948;BME280;59820;55.076;38.766;2022-09-03T06:04:48;100649.69;;;9.42;68.59
71948;BME280;59820;55.076;38.766;2022-09-03T06:07:15;100631.31;;;9.40;68.57
71948;BME280;59820;55.076;38.766;2022-09-03T06:09:41;100651.31;;;9.46;67.29
71948;BME280;59820;55.076;38.766;2022-09-03T06:12:07;100660.69;;;9.53;67.77
71948;BME280;59820;55.076;38.766;2022-09-03T06:14:33;100650.16;;;9.53;67.84
71948;BME280;59820;55.076;38.766;2022-09-03T06:16:58;100663.06;;;9.61;67.52
71948;BME280;59820;55.076;38.766;2022-09-03T06:19:25;100658.22;;;9.72;67.42
71948;BME280;59820;55.076;38.766;2022-09-03T06:21:51;100668.47;;;9.80;67.34
71948;BME280;59820;55.076;38.766;2022-09-03T06:24:19;100655.47;;;9.75;67.08
71948;BME280;59820;55.076;38.766;2022-09-03T06:26:47;100677.59;;;9.95;66.11
71948;BME280;59820;55.076;38.766;2022-09-03T06:29:14;100666.66;;;10.04;65.29
71948;BME280;59820;55.076;38.766;2022-09-03T06:31:40;100670.59;;;10.16;65.08
71948;BME280;59820;55.076;38.766;2022-09-03T06:34:08;100670.34;;;10.22;64.41
71948;BME280;59820;55.076;38.766;2022-09-03T06:36:34;100665.66;;;10.29;64.21
71948;BME280;59820;55.076;38.766;2022-09-03T06:39:00;100664.03;;;10.26;63.65
71948;BME280;59820;55.076;38.766;2022-09-03T06:41:29;100665.63;;;10.30;63.82
71948;BME280;59820;55.076;38.766;2022-09-03T06:44:01;100652.31;;;10.33;63.34
71948;BME280;59820;55.076;38.766;2022-09-03T06:46:33;100678.75;;;10.54;61.78
71948;BME280;59820;55.076;38.766;2022-09-03T06:49:01;100678.56;;;10.59;61.73
71948;BME280;59820;55.076;38.766;2022-09-03T06:51:28;100665.44;;;10.57;61.25
71948;BME280;59820;55.076;38.766;2022-09-03T06:54:02;100671.19;;;10.67;61.03
71948;BME280;59820;55.076;38.766;2022-09-03T06:56:28;100678.72;;;10.76;61.21
71948;BME280;59820;55.076;38.766;2022-09-03T06:58:59;100644.25;;;10.59;60.24
71948;BME280;59820;55.076;38.766;2022-09-03T07:01:27;100674.34;;;10.96;60.24
71948;BME280;59820;55.076;38.766;2022-09-03T07:04:02;100663.88;;;10.94;60.24
71948;BME280;59820;55.076;38.766;2022-09-03T07:06:34;100663.00;;;10.94;59.50
71948;BME280;59820;55.076;38.766;2022-09-03T07:09:05;100671.63;;;11.18;59.61
71948;BME280;59820;55.076;38.766;2022-09-03T07:11:31;100675.94;;;11.20;58.65
71948;BME280;59820;55.076;38.766;2022-09-03T07:14:04;100673.81;;;11.29;58.44
71948;BME280;59820;55.076;38.766;2022-09-03T07:16:35;100673.53;;;11.35;57.59
71948;BME280;59820;55.076;38.766;2022-09-03T07:19:02;100679.41;;;11.42;56.57
71948;BME280;59820;55.076;38.766;2022-09-03T07:21:31;100662.75;;;11.40;57.31
71948;BME280;59820;55.076;38.766;2022-09-03T07:23:59;100675.56;;;11.49;56.46
71948;BME280;59820;55.076;38.766;2022-09-03T07:26:27;100676.66;;;11.64;56.35
71948;BME280;59820;55.076;38.766;2022-09-03T07:28:53;100680.28;;;11.80;55.72
71948;BME280;59820;55.076;38.766;2022-09-03T07:31:29;100678.56;;;11.79;54.55
71948;BME280;59820;55.076;38.766;2022-09-03T07:33:56;100674.28;;;11.77;54.49
71948;BME280;59820;55.076;38.766;2022-09-03T07:36:24;100682.31;;;11.94;54.14
71948;BME280;59820;55.076;38.766;2022-09-03T07:38:54;100686.16;;;12.06;53.53
71948;BME280;59820;55.076;38.766;2022-09-03T07:41:22;100684.00;;;12.14;53.83
71948;BME280;59820;55.076;38.766;2022-09-03T07:43:49;100686.13;;;12.25;52.98
71948;BME280;59820;55.076;38.766;2022-09-03T07:46:21;100672.97;;;12.24;52.47
71948;BME280;59820;55.076;38.766;2022-09-03T07:48:54;100676.41;;;12.43;52.49
71948;BME280;59820;55.076;38.766;2022-09-03T07:51:26;100654.88;;;12.51;52.03
71948;BME280;59820;55.076;38.766;2022-09-03T07:53:55;100671.94;;;12.80;52.26
71948;BME280;59820;55.076;38.766;2022-09-03T07:56:22;100670.78;;;12.86;51.49
71948;BME280;59820;55.076;38.766;2022-09-03T07:58:48;100656.66;;;12.85;50.22
71948;BME280;59820;55.076;38.766;2022-09-03T08:01:17;100668.66;;;12.93;49.89
71948;BME280;59820;55.076;38.766;2022-09-03T08:03:45;100666.22;;;13.05;49.86
71948;BME280;59820;55.076;38.766;2022-09-03T08:06:14;100650.44;;;13.37;49.14
71948;BME280;59820;55.076;38.766;2022-09-03T08:08:41;100665.34;;;13.40;48.94
71948;BME280;59820;55.076;38.766;2022-09-03T08:11:19;100653.31;;;13.33;48.86
71948;BME280;59820;55.076;38.766;2022-09-03T08:13:48;100675.38;;;13.33;49.53
71948;BME280;59820;55.076;38.766;2022-09-03T08:16:16;100682.72;;;13.28;48.39
71948;BME280;59820;55.076;38.766;2022-09-03T08:18:45;100655.00;;;13.34;48.46
71948;BME280;59820;55.076;38.766;2022-09-03T08:21:14;100665.19;;;13.59;48.27
71948;BME280;59820;55.076;38.766;2022-09-03T08:23:43;100643.09;;;13.58;47.87
71948;BME280;59820;55.076;38.766;2022-09-03T08:26:09;100650.84;;;13.63;47.09
71948;BME280;59820;55.076;38.766;2022-09-03T08:28:36;100647.94;;;13.84;46.47
71948;BME280;59820;55.076;38.766;2022-09-03T08:33:32;100639.28;;;13.96;44.12
71948;BME280;59820;55.076;38.766;2022-09-03T08:36:12;100653.19;;;14.32;43.85
71948;BME280;59820;55.076;38.766;2022-09-03T08:38:39;100653.00;;;14.35;45.27
71948;BME280;59820;55.076;38.766;2022-09-03T08:43:45;100642.81;;;14.27;45.29
71948;BME280;59820;55.076;38.766;2022-09-03T08:46:16;100644.31;;;14.17;45.82
71948;BME280;59820;55.076;38.766;2022-09-03T08:48:41;100652.53;;;14.12;46.43
71948;BME280;59820;55.076;38.766;2022-09-03T08:51:08;100658.19;;;14.22;46.69
71948;BME280;59820;55.076;38.766;2022-09-03T08:53:50;100613.50;;;14.14;46.26
71948;BME280;59820;55.076;38.766;2022-09-03T08:56:29;100642.06;;;14.25;46.15
71948;BME280;59820;55.076;38.766;2022-09-03T08:58:57;100641.56;;;14.34;44.95
71948;BME280;59820;55.076;38.766;2022-09-03T09:01:47;100644.91;;;14.22;45.85
71948;BME280;59820;55.076;38.766;2022-09-03T09:07:26;100647.22;;;14.58;45.12
71948;BME280;59820;55.076;38.766;2022-09-03T09:11:00;100652.44;;;14.60;43.72
71948;BME280;59820;55.076;38.766;2022-09-03T09:13:38;100651.00;;;14.54;42.06
71948;BME280;59820;55.076;38.766;2022-09-03T09:16:21;100659.72;;;14.26;42.86
71948;BME280;59820;55.076;38.766;2022-09-03T09:21:35;100645.66;;;14.24;42.19
71948;BME280;59820;55.076;38.766;2022-09-03T09:24:08;100650.28;;;14.36;42.67
71948;BME280;59820;55.076;38.766;2022-09-03T09:26:39;100649.34;;;14.37;41.99
71948;BME280;59820;55.076;38.766;2022-09-03T09:29:08;100639.47;;;14.39;41.51
71948;BME280;59820;55.076;38.766;2022-09-03T09:31:39;100651.38;;;14.79;41.93
71948;BME280;59820;55.076;38.766;2022-09-03T09:34:09;100627.91;;;14.71;42.49
71948;BME280;59820;55.076;38.766;2022-09-03T09:36:47;100625.53;;;14.36;41.38
71948;BME280;59820;55.076;38.766;2022-09-03T09:39:13;100637.59;;;14.72;41.54
71948;BME280;59820;55.076;38.766;2022-09-03T09:41:41;100622.16;;;14.93;41.84
71948;BME280;59820;55.076;38.766;2022-09-03T09:44:18;100638.88;;;15.09;41.41
71948;BME280;59820;55.076;38.766;2022-09-03T09:46:44;100641.75;;;14.92;42.13
71948;BME280;59820;55.076;38.766;2022-09-03T09:52:14;100640.47;;;14.53;39.24
71948;BME280;59820;55.076;38.766;2022-09-03T09:54:43;100624.25;;;14.57;40.10
71948;BME280;59820;55.076;38.766;2022-09-03T09:57:22;100630.63;;;14.85;40.00
71948;BME280;59820;55.076;38.766;2022-09-03T09:59:48;100623.31;;;15.03;39.43
71948;BME280;59820;55.076;38.766;2022-09-03T10:02:26;100621.78;;;15.14;39.34
71948;BME280;59820;55.076;38.766;2022-09-03T10:05:01;100613.44;;;15.05;39.90
71948;BME280;59820;55.076;38.766;2022-09-03T10:07:39;100626.53;;;15.52;39.86
71948;BME280;59820;55.076;38.766;2022-09-03T10:10:13;100634.00;;;15.74;39.11
71948;BME280;59820;55.076;38.766;2022-09-03T10:12:55;100629.41;;;16.05;38.06
71948;BME280;59820;55.076;38.766;2022-09-03T10:15:55;100627.31;;;16.63;37.46
71948;BME280;59820;55.076;38.766;2022-09-03T10:18:42;100628.31;;;16.88;36.10
71948;BME280;59820;55.076;38.766;2022-09-03T10:21:14;100587.97;;;16.54;36.24
71948;BME280;59820;55.076;38.766;2022-09-03T10:23:53;100634.63;;;17.00;34.94
71948;BME280;59820;55.076;38.766;2022-09-03T10:26:22;100616.50;;;16.92;34.97
71948;BME280;59820;55.076;38.766;2022-09-03T10:29:03;100621.41;;;16.98;35.64
71948;BME280;59820;55.076;38.766;2022-09-03T10:39:28;100627.81;;;16.42;35.01
71948;BME280;59820;55.076;38.766;2022-09-03T10:45:07;100646.91;;;15.94;35.12
71948;BME280;59820;55.076;38.766;2022-09-03T10:59:09;100629.16;;;15.81;36.21
71948;BME280;59820;55.076;38.766;2022-09-03T11:04:19;100624.81;;;16.07;35.86
71948;BME280;59820;55.076;38.766;2022-09-03T11:07:04;100631.44;;;16.14;35.57
71948;BME280;59820;55.076;38.766;2022-09-03T11:12:18;100627.44;;;16.21;36.13
71948;BME280;59820;55.076;38.766;2022-09-03T11:14:52;100629.56;;;16.02;34.36
71948;BME280;59820;55.076;38.766;2022-09-03T11:17:40;100644.94;;;15.84;35.03
71948;BME280;59820;55.076;38.766;2022-09-03T11:20:16;100636.56;;;15.90;35.15
71948;BME280;59820;55.076;38.766;2022-09-03T11:22:45;100629.06;;;15.82;35.50
71948;BME280;59820;55.076;38.766;2022-09-03T11:25:14;100630.19;;;15.92;35.74
71948;BME280;59820;55.076;38.766;2022-09-03T11:30:12;100621.16;;;15.95;35.50
71948;BME280;59820;55.076;38.766;2022-09-03T11:35:16;100606.41;;;15.89;35.59
71948;BME280;59820;55.076;38.766;2022-09-03T11:43:25;100621.09;;;17.03;33.81
71948;BME280;59820;55.076;38.766;2022-09-03T11:48:44;100598.63;;;18.65;31.16
71948;BME280;59820;55.076;38.766;2022-09-03T11:51:36;100579.19;;;18.74;30.67
71948;BME280;59820;55.076;38.766;2022-09-03T11:54:06;100595.91;;;19.12;29.77
71948;BME280;59820;55.076;38.766;2022-09-03T11:56:48;100587.63;;;19.49;28.75
71948;BME280;59820;55.076;38.766;2022-09-03T11:59:22;100582.03;;;19.41;28.18
71948;BME280;59820;55.076;38.766;2022-09-03T12:01:57;100591.41;;;19.35;28.55
71948;BME280;59820;55.076;38.766;2022-09-03T12:07:30;100573.75;;;18.87;29.33
71948;BME280;59820;55.076;38.766;2022-09-03T12:10:19;100572.69;;;18.07;30.69
71948;BME280;59820;55.076;38.766;2022-09-03T12:12:57;100580.78;;;17.57;32.44
71948;BME280;59820;55.076;38.766;2022-09-03T12:18:40;100560.34;;;16.68;33.05
71948;BME280;59820;55.076;38.766;2022-09-03T12:21:09;100575.72;;;16.64;33.43
71948;BME280;59820;55.076;38.766;2022-09-03T12:23:46;100575.03;;;17.51;32.17
71948;BME280;59820;55.076;38.766;2022-09-03T12:26:18;100575.91;;;18.24;31.01
71948;BME280;59820;55.076;38.766;2022-09-03T12:28:47;100575.22;;;19.03;29.24
71948;BME280;59820;55.076;38.766;2022-09-03T12:33:48;100568.84;;;19.72;27.89
71948;BME280;59820;55.076;38.766;2022-09-03T12:36:16;100567.34;;;19.79;27.68
71948;BME280;59820;55.076;38.766;2022-09-03T12:38:44;100561.78;;;20.36;27.29
71948;BME280;59820;55.076;38.766;2022-09-03T12:41:23;100551.66;;;21.12;26.44
71948;BME280;59820;55.076;38.766;2022-09-03T12:43:56;100561.09;;;21.47;26.10
71948;BME280;59820;55.076;38.766;2022-09-03T12:46:24;100554.84;;;19.68;25.38
71948;BME280;59820;55.076;38.766;2022-09-03T12:49:01;100544.31;;;18.64;28.88
71948;BME280;59820;55.076;38.766;2022-09-03T12:51:40;100552.59;;;17.77;30.13
71948;BME280;59820;55.076;38.766;2022-09-03T12:54:11;100550.81;;;17.41;30.73
71948;BME280;59820;55.076;38.766;2022-09-03T12:56:45;100560.41;;;17.06;31.09
71948;BME280;59820;55.076;38.766;2022-09-03T12:59:16;100533.44;;;18.43;29.49
71948;BME280;59820;55.076;38.766;2022-09-03T13:01:48;100537.75;;;19.37;28.34
71948;BME280;59820;55.076;38.766;2022-09-03T13:04:32;100550.78;;;19.41;27.69
71948;BME280;59820;55.076;38.766;2022-09-03T13:07:11;100546.53;;;19.94;27.64
71948;BME280;59820;55.076;38.766;2022-09-03T13:09:38;100528.44;;;20.07;26.58
71948;BME280;59820;55.076;38.766;2022-09-03T13:12:06;100544.34;;;19.88;27.09
71948;BME280;59820;55.076;38.766;2022-09-03T13:14:42;100553.81;;;19.92;27.35
71948;BME280;59820;55.076;38.766;2022-09-03T13:17:38;100544.69;;;20.69;26.49
71948;BME280;59820;55.076;38.766;2022-09-03T13:20:32;100540.72;;;21.35;25.10
71948;BME280;59820;55.076;38.766;2022-09-03T13:31:55;100531.03;;;21.54;24.85
71948;BME280;59820;55.076;38.766;2022-09-03T13:34:29;100535.75;;;20.05;26.82
71948;BME280;59820;55.076;38.766;2022-09-03T13:37:21;100526.50;;;18.99;28.22
71948;BME280;59820;55.076;38.766;2022-09-03T13:42:33;100528.69;;;20.46;28.10
71948;BME280;59820;55.076;38.766;2022-09-03T13:45:05;100519.84;;;21.58;26.17
71948;BME280;59820;55.076;38.766;2022-09-03T13:47:42;100522.28;;;22.00;25.12
71948;BME280;59820;55.076;38.766;2022-09-03T13:50:44;100521.44;;;22.00;24.65
71948;BME280;59820;55.076;38.766;2022-09-03T13:53:18;100513.94;;;22.03;24.23
71948;BME280;59820;55.076;38.766;2022-09-03T13:55:55;100510.78;;;22.47;23.99
71948;BME280;59820;55.076;38.766;2022-09-03T13:58:25;100516.19;;;22.85;24.04
71948;BME280;59820;55.076;38.766;2022-09-03T14:03:37;100517.91;;;21.70;23.83
71948;BME280;59820;55.076;38.766;2022-09-03T14:11:53;100506.69;;;22.24;23.48
71948;BME280;59820;55.076;38.766;2022-09-03T14:14:40;100512.25;;;21.93;23.36
71948;BME280;59820;55.076;38.766;2022-09-03T14:17:27;100498.75;;;22.32;23.54
71948;BME280;59820;55.076;38.766;2022-09-03T14:25:24;100498.34;;;23.12;22.10
71948;BME280;59820;55.076;38.766;2022-09-03T14:27:51;100485.16;;;23.18;22.35
71948;BME280;59820;55.076;38.766;2022-09-03T14:33:11;100496.28;;;23.06;22.68
71948;BME280;59820;55.076;38.766;2022-09-03T14:36:20;100496.69;;;23.01;22.97
71948;BME280;59820;55.076;38.766;2022-09-03T14:39:20;100508.19;;;22.65;22.97
71948;BME280;59820;55.076;38.766;2022-09-03T15:08:07;100499.59;;;18.67;31.40
71948;BME280;59820;55.076;38.766;2022-09-03T15:10:44;100492.47;;;18.20;31.29
71948;BME280;59820;55.076;38.766;2022-09-03T15:13:17;100490.44;;;18.35;30.94
71948;BME280;59820;55.076;38.766;2022-09-03T15:18:31;100491.00;;;19.52;29.55
71948;BME280;59820;55.076;38.766;2022-09-03T15:21:33;100488.75;;;20.22;28.63
71948;BME280;59820;55.076;38.766;2022-09-03T15:27:17;100492.13;;;19.49;30.13
71948;BME280;59820;55.076;38.766;2022-09-03T15:30:13;100481.81;;;18.54;31.68
71948;BME280;59820;55.076;38.766;2022-09-03T15:36:02;100483.53;;;17.49;34.22
71948;BME280;59820;55.076;38.766;2022-09-03T15:44:16;100470.00;;;16.52;36.05
71948;BME280;59820;55.076;38.766;2022-09-03T15:58:34;100490.50;;;15.98;36.93
71948;BME280;59820;55.076;38.766;2022-09-03T16:01:19;100486.56;;;15.76;37.63
71948;BME280;59820;55.076;38.766;2022-09-03T16:12:09;100488.31;;;14.94;41.49
71948;BME280;59820;55.076;38.766;2022-09-03T16:14:45;100481.13;;;14.96;44.16
71948;BME280;59820;55.076;38.766;2022-09-03T16:21:01;100482.13;;;14.50;43.11
71948;BME280;59820;55.076;38.766;2022-09-03T16:25:52;100488.19;;;14.23;46.08
71948;BME280;59820;55.076;38.766;2022-09-03T16:28:34;100484.25;;;14.15;46.73
71948;BME280;59820;55.076;38.766;2022-09-03T16:48:00;100503.75;;;13.69;45.53
71948;BME280;59820;55.076;38.766;2022-09-03T16:53:41;100495.38;;;13.45;49.18
71948;BME280;59820;55.076;38.766;2022-09-03T17:07:14;100495.06;;;12.85;51.58
71948;BME280;59820;55.076;38.766;2022-09-03T17:10:26;100508.22;;;12.71;52.81
71948;BME280;59820;55.076;38.766;2022-09-03T17:18:50;100503.31;;;12.46;53.78
71948;BME280;59820;55.076;38.766;2022-09-03T17:21:38;100511.81;;;12.35;54.37
71948;BME280;59820;55.076;38.766;2022-09-03T17:32:18;100506.47;;;12.01;54.62